Time;durP1;ratioP1;P1;durP2;ratioP2;P2;SDS_P1;SDS_P2;PMS_P1;PMS_P2;Temp;Humidity;BMP_temperature;BMP_pressure;BME280_temperature;BME280_humidity;BME280_pressure;Samples;Min_cycle;Max_cycle;Signal;HPM_P1;HPM_P2
2023/02/19 00:01:44;;;;;;;0.00;0.00;;;1.00;100.00;;;;;;4971762;28;20499;-76
2023/02/19 00:04:15;;;;;;;0.00;0.00;;;1.00;100.00;;;;;;4971514;28;20065;-77
2023/02/19 00:06:44;;;;;;;0.00;0.00;;;1.00;100.00;;;;;;4960742;28;20178;-76
2023/02/19 00:09:12;;;;;;;0.00;0.00;;;1.00;100.00;;;;;;4973455;28;20057;-77
2023/02/19 00:11:39;;;;;;;0.00;0.00;;;1.00;100.00;;;;;;4966936;28;20366;-76
2023/02/19 00:14:06;;;;;;;0.00;0.00;;;1.00;100.00;;;;;;4966675;28;20513;-77
2023/02/19 00:16:35;;;;;;;0.00;0.00;;;1.00;100.00;;;;;;4962149;28;20461;-76
2023/02/19 00:19:04;;;;;;;0.00;0.00;;;1.00;100.00;;;;;;4966708;28;20062;-76
2023/02/19 00:21:31;;;;;;;0.00;0.00;;;1.00;100.00;;;;;;4969285;28;20050;-76
2023/02/19 00:24:01;;;;;;;0.00;0.00;;;1.10;100.00;;;;;;4961751;28;20054;-77
2023/02/19 00:26:29;;;;;;;0.00;0.00;;;1.10;100.00;;;;;;4963959;28;20050;-77
2023/02/19 00:28:56;;;;;;;0.00;0.00;;;1.10;100.00;;;;;;4976605;28;20479;-77
2023/02/19 00:31:29;;;;;;;0.00;0.00;;;1.10;100.00;;;;;;4965344;28;20508;-77
2023/02/19 00:34:02;;;;;;;0.00;0.00;;;1.10;100.00;;;;;;4965826;28;20473;-76
2023/02/19 00:36:34;;;;;;;0.00;0.00;;;1.10;100.00;;;;;;4956163;28;20522;-76
2023/02/19 00:39:01;;;;;;;0.00;0.00;;;1.10;100.00;;;;;;4965777;28;20051;-77
2023/02/19 00:41:29;;;;;;;0.00;0.00;;;1.10;100.00;;;;;;4965089;28;20061;-76
2023/02/19 00:44:01;;;;;;;0.00;0.00;;;1.10;100.00;;;;;;4971597;28;20057;-76
2023/02/19 00:46:33;;;;;;;0.00;0.00;;;1.20;100.00;;;;;;4959394;28;20047;-77
2023/02/19 00:49:00;;;;;;;0.00;0.00;;;1.10;100.00;;;;;;4967309;28;20057;-77
2023/02/19 00:51:31;;;;;;;0.00;0.00;;;1.10;100.00;;;;;;4958130;28;20388;-76
2023/02/19 00:53:58;;;;;;;0.00;0.00;;;1.20;100.00;;;;;;4969876;28;20050;-76
2023/02/19 00:56:25;;;;;;;0.00;0.00;;;1.20;100.00;;;;;;4969638;28;20061;-75
2023/02/19 00:58:52;;;;;;;0.00;0.00;;;1.10;100.00;;;;;;4971149;28;20051;-76
2023/02/19 01:01:20;;;;;;;0.00;0.00;;;1.20;100.00;;;;;;4959934;28;20571;-75
2023/02/19 01:03:48;;;;;;;0.00;0.00;;;1.20;100.00;;;;;;4971168;28;20157;-76
2023/02/19 01:06:16;;;;;;;0.00;0.00;;;1.20;100.00;;;;;;4971338;28;20062;-76
2023/02/19 01:08:44;;;;;;;0.00;0.00;;;1.20;100.00;;;;;;4967380;28;20133;-75
2023/02/19 01:11:12;;;;;;;0.00;0.00;;;1.30;100.00;;;;;;4974390;28;20252;-75
2023/02/19 01:13:39;;;;;;;0.00;0.00;;;1.30;100.00;;;;;;4973353;28;20054;-75
2023/02/19 01:16:22;;;;;;;0.00;0.00;;;1.30;100.00;;;;;;4963667;28;20050;-75
2023/02/19 01:18:50;;;;;;;0.00;0.00;;;1.30;100.00;;;;;;4962387;28;20630;-77
2023/02/19 01:21:20;;;;;;;0.00;0.00;;;1.30;100.00;;;;;;4968051;28;20057;-77
2023/02/19 01:23:49;;;;;;;0.00;0.00;;;1.40;100.00;;;;;;4965619;28;20504;-77
2023/02/19 01:26:24;;;;;;;0.00;0.00;;;1.40;100.00;;;;;;4969485;28;20072;-78
2023/02/19 01:28:51;;;;;;;0.00;0.00;;;1.40;100.00;;;;;;4969335;28;20062;-77
2023/02/19 01:31:21;;;;;;;0.00;0.00;;;1.40;100.00;;;;;;4963188;28;20061;-78
2023/02/19 01:33:54;;;;;;;0.00;0.00;;;1.40;100.00;;;;;;4958546;28;20051;-78
2023/02/19 01:36:22;;;;;;;0.00;0.00;;;1.40;100.00;;;;;;4962163;28;20061;-77
2023/02/19 01:38:49;;;;;;;0.00;0.00;;;1.50;100.00;;;;;;4965941;28;20058;-77
2023/02/19 01:41:20;;;;;;;0.00;0.00;;;1.50;100.00;;;;;;4957169;28;20051;-77
2023/02/19 01:44:10;;;;;;;0.00;0.00;;;1.50;100.00;;;;;;4971820;28;20050;-75
2023/02/19 01:46:41;;;;;;;0.00;0.00;;;1.50;100.00;;;;;;4959144;28;20050;-76
2023/02/19 01:49:19;;;;;;;0.00;0.00;;;1.50;100.00;;;;;;4980370;28;20537;-76
2023/02/19 01:51:53;;;;;;;0.00;0.00;;;1.50;100.00;;;;;;4962703;28;20046;-76
2023/02/19 01:54:24;;;;;;;0.00;0.00;;;1.50;100.00;;;;;;4967828;28;20050;-76
2023/02/19 01:56:51;;;;;;;0.00;0.00;;;1.60;100.00;;;;;;4963970;28;20061;-77
2023/02/19 01:59:18;;;;;;;0.00;0.00;;;1.60;100.00;;;;;;4970116;28;20058;-76
2023/02/19 02:01:45;;;;;;;0.00;0.00;;;1.60;100.00;;;;;;4967595;28;20097;-77
2023/02/19 02:04:14;;;;;;;0.00;0.00;;;1.60;100.00;;;;;;4966253;28;20557;-77
2023/02/19 02:06:49;;;;;;;0.00;0.00;;;1.60;100.00;;;;;;4957992;28;20054;-77
2023/02/19 02:12:04;;;;;;;0.00;0.00;;;1.70;100.00;;;;;;4970544;28;20412;-76
2023/02/19 02:14:35;;;;;;;0.00;0.00;;;1.70;100.00;;;;;;4970456;28;20527;-76
2023/02/19 02:17:35;;;;;;;0.00;0.00;;;1.70;100.00;;;;;;4962738;28;20591;-76
2023/02/19 02:20:09;;;;;;;0.00;0.00;;;1.70;100.00;;;;;;4959846;28;20051;-76
2023/02/19 02:22:51;;;;;;;0.00;0.00;;;1.80;100.00;;;;;;4959185;28;20050;-76
2023/02/19 02:25:27;;;;;;;0.00;0.00;;;1.70;100.00;;;;;;4961258;28;20057;-76
2023/02/19 02:28:15;;;;;;;0.00;0.00;;;1.80;100.00;;;;;;4960017;28;20129;-76
2023/02/19 02:30:54;;;;;;;0.00;0.00;;;1.70;100.00;;;;;;4963857;28;20508;-76
2023/02/19 02:33:24;;;;;;;0.00;0.00;;;1.70;100.00;;;;;;4963271;28;20060;-77
2023/02/19 02:35:59;;;;;;;0.00;0.00;;;1.70;100.00;;;;;;4961615;28;20211;-76
2023/02/19 02:38:30;;;;;;;0.00;0.00;;;1.70;100.00;;;;;;4966150;28;20062;-77
2023/02/19 02:40:58;;;;;;;0.00;0.00;;;1.70;100.00;;;;;;4957593;28;20153;-76
2023/02/19 02:43:25;;;;;;;0.00;0.00;;;1.70;100.00;;;;;;4957893;28;20055;-77
2023/02/19 02:45:52;;;;;;;0.00;0.00;;;1.70;100.00;;;;;;4960805;28;20060;-76
2023/02/19 02:48:44;;;;;;;0.00;0.00;;;1.70;100.00;;;;;;4964857;28;20066;-77
2023/02/19 02:51:35;;;;;;;0.00;0.00;;;1.70;100.00;;;;;;4957319;28;20417;-76
2023/02/19 02:57:03;;;;;;;0.00;0.00;;;1.70;100.00;;;;;;4965380;28;20054;-76
2023/02/19 02:59:33;;;;;;;0.00;0.00;;;1.70;100.00;;;;;;4963895;28;20452;-76
2023/02/19 03:02:17;;;;;;;0.00;0.00;;;1.70;100.00;;;;;;4960894;28;20055;-76
2023/02/19 03:07:54;;;;;;;0.00;0.00;;;1.70;100.00;;;;;;4969180;28;20052;-77
2023/02/19 03:10:29;;;;;;;0.00;0.00;;;1.70;100.00;;;;;;4964981;28;20055;-76
2023/02/19 03:21:40;;;;;;;0.00;0.00;;;1.80;100.00;;;;;;4959991;28;20066;-77
2023/02/19 03:26:58;;;;;;;0.00;0.00;;;1.80;100.00;;;;;;4968367;28;20352;-77
2023/02/19 03:29:28;;;;;;;0.00;0.00;;;1.70;100.00;;;;;;4969606;28;20799;-77
2023/02/19 03:31:58;;;;;;;0.00;0.00;;;1.80;100.00;;;;;;4969707;28;20051;-77
2023/02/19 03:34:32;;;;;;;0.00;0.00;;;1.70;100.00;;;;;;4970283;28;20062;-78
2023/02/19 03:37:17;;;;;;;0.00;0.00;;;1.70;100.00;;;;;;4964251;28;20073;-77
2023/02/19 03:39:44;;;;;;;0.00;0.00;;;1.70;100.00;;;;;;4966053;28;20050;-77
2023/02/19 03:42:14;;;;;;;0.00;0.00;;;1.70;100.00;;;;;;4966672;28;20061;-77
2023/02/19 03:44:58;;;;;;;0.00;0.00;;;1.70;100.00;;;;;;4971246;28;20459;-77
2023/02/19 03:47:31;;;;;;;0.00;0.00;;;1.70;100.00;;;;;;4967522;28;20055;-77
2023/02/19 03:50:16;;;;;;;0.00;0.00;;;1.70;100.00;;;;;;4956329;28;20532;-77
2023/02/19 03:53:22;;;;;;;0.00;0.00;;;1.70;100.00;;;;;;4969096;28;20144;-78
2023/02/19 03:56:07;;;;;;;0.00;0.00;;;1.70;100.00;;;;;;4963057;28;20054;-77
2023/02/19 03:58:52;;;;;;;0.00;0.00;;;1.70;100.00;;;;;;4977362;28;20148;-77
2023/02/19 04:01:27;;;;;;;0.00;0.00;;;1.70;100.00;;;;;;4967878;28;20063;-77
2023/02/19 04:03:58;;;;;;;;;;;1.70;100.00;;;;;;4964710;28;20571;-82
2023/02/19 04:06:28;;;;;;;0.00;0.00;;;1.60;100.00;;;;;;4968762;28;20466;-82
2023/02/19 04:08:59;;;;;;;0.00;0.00;;;1.60;100.00;;;;;;4973931;28;20752;-82
2023/02/19 04:11:27;;;;;;;0.00;0.00;;;1.60;100.00;;;;;;4975418;28;20058;-82
2023/02/19 04:14:01;;;;;;;0.00;0.00;;;1.60;100.00;;;;;;4973844;28;20200;-82
2023/02/19 04:16:29;;;;;;;0.00;0.00;;;1.60;100.00;;;;;;4957629;28;20049;-82
2023/02/19 04:19:05;;;;;;;0.00;0.00;;;1.60;100.00;;;;;;4973395;28;20053;-82
2023/02/19 04:21:35;;;;;;;0.00;0.00;;;1.60;100.00;;;;;;4970386;28;20054;-81
2023/02/19 04:24:05;;;;;;;0.00;0.00;;;1.70;100.00;;;;;;4976209;28;20426;-81
2023/02/19 04:26:34;;;;;;;0.00;0.00;;;1.70;100.00;;;;;;4965419;28;20055;-82
2023/02/19 04:29:01;;;;;;;0.00;0.00;;;1.70;100.00;;;;;;4975925;28;20050;-82
2023/02/19 04:31:30;;;;;;;0.00;0.00;;;1.70;100.00;;;;;;4963739;28;20042;-83
2023/02/19 04:33:57;;;;;;;0.00;0.00;;;1.70;100.00;;;;;;4978858;28;20126;-81
2023/02/19 04:36:24;;;;;;;0.00;0.00;;;1.70;100.00;;;;;;4964089;28;20173;-82
2023/02/19 04:38:51;;;;;;;0.00;0.00;;;1.70;100.00;;;;;;4970364;28;20046;-82
2023/02/19 04:41:17;;;;;;;0.00;0.00;;;1.70;100.00;;;;;;4968477;28;20070;-82
2023/02/19 04:43:44;;;;;;;0.00;0.00;;;1.70;100.00;;;;;;4972979;28;20046;-82
2023/02/19 04:46:11;;;;;;;0.00;0.00;;;1.70;100.00;;;;;;4957265;28;20057;-82
2023/02/19 04:48:38;;;;;;;0.00;0.00;;;1.70;100.00;;;;;;4971209;28;20046;-82
2023/02/19 04:51:06;;;;;;;0.00;0.00;;;1.70;100.00;;;;;;4971203;28;20043;-82
2023/02/19 04:53:33;;;;;;;0.00;0.00;;;1.70;100.00;;;;;;4975207;28;20054;-82
2023/02/19 04:56:14;;;;;;;0.00;0.00;;;1.60;100.00;;;;;;4966676;28;20050;-82
2023/02/19 04:58:43;;;;;;;0.00;0.00;;;1.70;100.00;;;;;;4970069;28;20057;-82
2023/02/19 05:01:11;;;;;;;0.00;0.00;;;1.60;100.00;;;;;;4964763;28;20066;-83
2023/02/19 05:03:39;;;;;;;0.00;0.00;;;1.60;100.00;;;;;;4967967;28;20142;-82
2023/02/19 05:06:11;;;;;;;0.00;0.00;;;1.60;100.00;;;;;;4965664;28;20054;-82
2023/02/19 05:08:39;;;;;;;0.00;0.00;;;1.60;100.00;;;;;;4963516;28;20050;-82
2023/02/19 05:11:09;;;;;;;0.00;0.00;;;1.60;100.00;;;;;;4971783;28;20056;-82
2023/02/19 05:13:37;;;;;;;0.00;0.00;;;1.60;100.00;;;;;;4965932;28;20062;-82
2023/02/19 05:16:08;;;;;;;0.00;0.00;;;1.50;100.00;;;;;;4966150;28;20392;-82
2023/02/19 05:18:35;;;;;;;0.00;0.00;;;1.60;100.00;;;;;;4968251;28;20081;-82
2023/02/19 05:21:02;;;;;;;0.00;0.00;;;1.50;100.00;;;;;;4962960;28;20492;-82
2023/02/19 05:23:29;;;;;;;0.00;0.00;;;1.50;100.00;;;;;;4966266;28;20496;-82
2023/02/19 05:25:56;;;;;;;0.00;0.00;;;1.50;100.00;;;;;;4963172;28;20499;-82
2023/02/19 05:28:33;;;;;;;0.00;0.00;;;1.50;100.00;;;;;;4961126;28;20133;-82
2023/02/19 05:31:05;;;;;;;0.00;0.00;;;1.40;100.00;;;;;;4961209;28;20526;-82
2023/02/19 05:33:32;;;;;;;0.00;0.00;;;1.40;100.00;;;;;;4974307;28;20054;-82
2023/02/19 05:36:07;;;;;;;0.00;0.00;;;1.40;100.00;;;;;;4962294;28;20061;-82
2023/02/19 05:38:35;;;;;;;0.00;0.00;;;1.30;100.00;;;;;;4971423;28;20062;-82
2023/02/19 05:41:17;;;;;;;0.00;0.00;;;1.20;100.00;;;;;;4959036;28;20058;-82
2023/02/19 05:43:46;;;;;;;0.00;0.00;;;1.20;100.00;;;;;;4968605;28;20069;-81
2023/02/19 05:46:15;;;;;;;0.00;0.00;;;1.20;100.00;;;;;;4960253;28;20478;-82
2023/02/19 05:48:42;;;;;;;0.00;0.00;;;1.10;100.00;;;;;;4968225;28;20049;-82
2023/02/19 05:51:11;;;;;;;0.00;0.00;;;1.10;100.00;;;;;;4961692;28;20149;-81
2023/02/19 05:53:39;;;;;;;0.00;0.00;;;1.10;100.00;;;;;;4963228;28;20431;-82
2023/02/19 05:56:25;;;;;;;0.00;0.00;;;1.00;100.00;;;;;;4960206;28;20502;-81
2023/02/19 05:58:53;;;;;;;0.00;0.00;;;1.00;100.00;;;;;;4963970;28;20062;-81
2023/02/19 06:01:22;;;;;;;0.00;0.00;;;1.10;100.00;;;;;;4963758;28;20519;-81
2023/02/19 06:03:49;;;;;;;0.00;0.00;;;1.00;100.00;;;;;;4970714;28;20058;-82
2023/02/19 06:06:17;;;;;;;0.00;0.00;;;1.10;100.00;;;;;;4961478;28;20050;-81
2023/02/19 06:08:45;;;;;;;0.00;0.00;;;1.10;100.00;;;;;;4972482;28;20523;-81
2023/02/19 06:11:11;;;;;;;0.00;0.00;;;1.10;100.00;;;;;;4962158;28;20404;-81
2023/02/19 06:13:38;;;;;;;0.00;0.00;;;1.10;100.00;;;;;;4967827;28;20069;-81
2023/02/19 06:16:06;;;;;;;0.00;0.00;;;1.10;100.00;;;;;;4967326;28;20074;-80
2023/02/19 06:18:34;;;;;;;0.00;0.00;;;1.10;100.00;;;;;;4965734;28;20043;-81
2023/02/19 06:21:05;;;;;;;0.00;0.00;;;1.10;100.00;;;;;;4967817;28;20050;-81
2023/02/19 06:23:32;;;;;;;0.00;0.00;;;1.10;100.00;;;;;;4965215;28;20039;-81
2023/02/19 06:26:12;;;;;;;0.00;0.00;;;1.10;100.00;;;;;;4963021;28;20053;-81
2023/02/19 06:28:40;;;;;;;0.00;0.00;;;1.10;100.00;;;;;;4976600;28;20454;-82
2023/02/19 06:31:08;;;;;;;0.00;0.00;;;1.10;100.00;;;;;;4964400;28;20046;-82
2023/02/19 06:33:39;;;;;;;0.00;0.00;;;1.10;100.00;;;;;;4971300;28;20050;-81
2023/02/19 06:36:11;;;;;;;0.00;0.00;;;1.10;100.00;;;;;;4961632;28;20105;-82
2023/02/19 06:38:39;;;;;;;0.00;0.00;;;1.10;100.00;;;;;;4964969;28;20500;-82
2023/02/19 06:41:07;;;;;;;0.00;0.00;;;1.10;100.00;;;;;;4952795;28;20527;-81
2023/02/19 06:43:34;;;;;;;0.00;0.00;;;1.10;100.00;;;;;;4967008;28;20161;-81
2023/02/19 06:46:03;;;;;;;0.00;0.00;;;1.10;100.00;;;;;;4968787;28;20420;-81
2023/02/19 06:48:31;;;;;;;0.00;0.00;;;1.10;100.00;;;;;;4972448;28;20051;-81
2023/02/19 06:50:58;;;;;;;0.00;0.00;;;1.20;100.00;;;;;;4965202;28;20046;-81
2023/02/19 06:53:25;;;;;;;0.00;0.00;;;1.20;100.00;;;;;;4964562;28;20042;-81
2023/02/19 06:56:01;;;;;;;0.00;0.00;;;1.20;100.00;;;;;;4959851;28;20535;-81
2023/02/19 06:58:28;;;;;;;0.00;0.00;;;1.20;100.00;;;;;;4957842;28;20059;-81
2023/02/19 07:00:55;;;;;;;0.00;0.00;;;1.20;100.00;;;;;;4954015;28;20054;-82
2023/02/19 07:03:22;;;;;;;0.00;0.00;;;1.20;100.00;;;;;;4952404;28;20054;-81
2023/02/19 07:05:49;;;;;;;0.00;0.00;;;1.20;100.00;;;;;;4953063;28;20051;-81
2023/02/19 07:08:16;;;;;;;0.00;0.00;;;1.30;100.00;;;;;;4957264;28;20051;-81
2023/02/19 07:10:44;;;;;;;0.00;0.00;;;1.20;100.00;;;;;;4956951;28;20134;-81
2023/02/19 07:13:11;;;;;;;0.00;0.00;;;1.30;100.00;;;;;;4965387;28;20051;-81
2023/02/19 07:15:38;;;;;;;0.00;0.00;;;1.30;100.00;;;;;;4960477;28;20057;-81
2023/02/19 07:18:09;;;;;;;0.00;0.00;;;1.30;100.00;;;;;;4948465;28;20058;-82
2023/02/19 07:20:36;;;;;;;0.00;0.00;;;1.40;100.00;;;;;;4953614;28;20181;-83
2023/02/19 07:23:03;;;;;;;0.00;0.00;;;1.50;100.00;;;;;;4954323;28;20129;-83
2023/02/19 07:25:30;;;;;;;0.00;0.00;;;1.40;100.00;;;;;;4951493;28;20058;-84
2023/02/19 07:27:56;;;;;;;0.00;0.00;;;1.50;100.00;;;;;;4950097;28;20428;-82
2023/02/19 07:30:23;;;;;;;0.00;0.00;;;1.50;100.00;;;;;;4955892;28;20079;-84
2023/02/19 07:32:50;;;;;;;0.00;0.00;;;1.60;100.00;;;;;;4950437;28;20474;-81
2023/02/19 07:35:17;;;;;;;0.00;0.00;;;1.60;100.00;;;;;;4951217;28;21956;-83
2023/02/19 07:37:44;;;;;;;0.00;0.00;;;1.60;100.00;;;;;;4954242;28;20058;-81
2023/02/19 07:40:11;;;;;;;0.00;0.00;;;1.60;100.00;;;;;;4954669;28;20496;-78
2023/02/19 07:42:38;;;;;;;0.00;0.00;;;1.60;100.00;;;;;;4951543;28;20076;-78
2023/02/19 07:45:05;;;;;;;0.00;0.00;;;1.50;100.00;;;;;;4956090;28;20356;-76
2023/02/19 07:47:32;;;;;;;0.00;0.00;;;1.50;100.00;;;;;;4968252;28;20409;-79
2023/02/19 07:49:59;;;;;;;0.00;0.00;;;1.60;100.00;;;;;;4953368;28;20047;-80
2023/02/19 07:52:26;;;;;;;0.00;0.00;;;1.60;100.00;;;;;;4955425;28;20119;-78
2023/02/19 07:54:53;;;;;;;0.00;0.00;;;1.60;100.00;;;;;;4953003;28;20050;-76
2023/02/19 07:57:19;;;;;;;0.00;0.00;;;1.70;100.00;;;;;;4955581;28;20734;-78
2023/02/19 07:59:46;;;;;;;0.00;0.00;;;1.70;100.00;;;;;;4944676;28;20055;-81
2023/02/19 08:05:05;;;;;;;0.00;0.00;;;1.90;100.00;;;;;;4955861;28;20047;-87
2023/02/19 08:07:33;;;;;;;0.00;0.00;;;1.90;100.00;;;;;;4956306;28;20078;-78
2023/02/19 08:13:18;;;;;;;0.00;0.00;;;2.00;100.00;;;;;;4955126;28;20202;-83
2023/02/19 08:15:43;;;;;;;;;;;2.10;100.00;;;;;;4962989;28;20059;-80
2023/02/19 08:18:10;;;;;;;0.00;0.00;;;2.20;100.00;;;;;;4949782;28;19930;-79
2023/02/19 08:20:37;;;;;;;0.00;0.00;;;2.20;100.00;;;;;;4954179;28;20423;-79
2023/02/19 08:23:04;;;;;;;0.00;0.00;;;2.30;100.00;;;;;;4966974;28;20085;-79
2023/02/19 08:25:32;;;;;;;0.00;0.00;;;2.30;100.00;;;;;;4957976;28;20058;-79
2023/02/19 08:27:59;;;;;;;0.00;0.00;;;2.50;100.00;;;;;;4958348;28;20047;-82
2023/02/19 08:30:27;;;;;;;0.00;0.00;;;2.50;100.00;;;;;;4965089;28;20055;-82
2023/02/19 08:32:54;;;;;;;0.00;0.00;;;2.70;99.60;;;;;;4958051;28;20466;-84
2023/02/19 08:35:21;;;;;;;0.00;0.00;;;2.70;99.70;;;;;;4953507;28;20093;-83
2023/02/19 08:37:48;;;;;;;0.00;0.00;;;2.80;99.30;;;;;;4954432;28;20059;-83
2023/02/19 08:40:15;;;;;;;0.00;0.00;;;3.10;99.00;;;;;;4953879;28;20051;-82
2023/02/19 08:42:42;;;;;;;0.00;0.00;;;3.40;96.60;;;;;;4960350;28;20065;-82
2023/02/19 08:45:09;;;;;;;0.00;0.00;;;3.60;95.80;;;;;;4968901;28;20058;-82
2023/02/19 08:47:37;;;;;;;0.00;0.00;;;3.60;93.40;;;;;;4968098;28;20048;-83
2023/02/19 08:50:05;;;;;;;0.00;0.00;;;3.40;92.80;;;;;;4972421;28;20043;-82
2023/02/19 08:52:32;;;;;;;0.00;0.00;;;3.40;94.50;;;;;;4969458;28;20069;-82
2023/02/19 08:55:00;;;;;;;0.00;0.00;;;3.40;93.60;;;;;;4962679;28;20515;-82
2023/02/19 08:57:28;;;;;;;0.00;0.00;;;3.40;93.20;;;;;;4969001;28;20062;-83
2023/02/19 08:59:58;;;;;;;0.00;0.00;;;3.40;92.60;;;;;;4971915;28;20734;-82
2023/02/19 09:02:25;;;;;;;0.00;0.00;;;3.40;91.90;;;;;;4967613;28;20712;-82
2023/02/19 09:04:51;;;;;;;0.00;0.00;;;3.40;93.00;;;;;;4964476;28;20124;-82
2023/02/19 09:07:19;;;;;;;0.00;0.00;;;3.40;93.10;;;;;;4968031;28;20070;-82
2023/02/19 09:09:45;;;;;;;0.00;0.00;;;3.50;91.90;;;;;;4969918;28;20055;-82
2023/02/19 09:12:12;;;;;;;0.00;0.00;;;3.50;92.10;;;;;;4967937;28;20474;-82
2023/02/19 09:14:39;;;;;;;0.00;0.00;;;3.50;92.60;;;;;;4971265;28;20055;-82
2023/02/19 09:17:07;;;;;;;0.00;0.00;;;3.60;93.60;;;;;;4968697;28;20054;-83
2023/02/19 09:19:35;;;;;;;0.00;0.00;;;3.80;91.20;;;;;;4964840;28;20050;-83
2023/02/19 09:22:03;;;;;;;0.00;0.00;;;3.80;90.70;;;;;;4966911;28;20134;-82
2023/02/19 09:24:31;;;;;;;0.00;0.00;;;3.80;89.80;;;;;;4973188;28;20051;-82
2023/02/19 09:26:58;;;;;;;0.73;0.73;;;3.90;89.50;;;;;;4967571;28;20054;-82
2023/02/19 09:29:26;;;;;;;0.00;0.00;;;3.90;88.40;;;;;;4966015;28;20117;-82
2023/02/19 09:31:57;;;;;;;0.00;0.00;;;4.00;88.90;;;;;;4963038;28;20054;-82
2023/02/19 09:34:26;;;;;;;0.00;0.00;;;4.10;88.70;;;;;;4971797;28;20049;-82
2023/02/19 09:36:53;;;;;;;0.00;0.00;;;4.40;88.10;;;;;;4965862;28;20412;-82
2023/02/19 09:39:21;;;;;;;0.00;0.00;;;4.60;85.70;;;;;;4965321;28;20046;-82
2023/02/19 09:41:53;;;;;;;0.00;0.00;;;4.70;87.70;;;;;;4965869;28;20484;-82
2023/02/19 09:44:26;;;;;;;0.00;0.00;;;4.90;85.00;;;;;;4977666;28;20740;-82
2023/02/19 09:46:54;;;;;;;0.00;0.00;;;5.00;86.00;;;;;;4965570;28;20050;-82
2023/02/19 09:49:27;;;;;;;0.00;0.00;;;5.10;85.90;;;;;;4975436;28;20085;-82
2023/02/19 09:51:57;;;;;;;0.00;0.00;;;5.10;82.80;;;;;;4965360;28;20145;-82
2023/02/19 09:54:29;;;;;;;0.00;0.00;;;5.30;84.10;;;;;;4970494;28;20042;-82
2023/02/19 09:56:58;;;;;;;0.00;0.00;;;5.30;81.10;;;;;;4961522;28;20146;-82
2023/02/19 09:59:33;;;;;;;0.00;0.00;;;5.30;79.60;;;;;;4973927;28;20073;-83
2023/02/19 10:02:15;;;;;;;0.00;0.00;;;5.40;81.70;;;;;;4963165;28;20098;-82
2023/02/19 10:04:43;;;;;;;0.00;0.00;;;5.60;79.20;;;;;;4967131;28;20046;-82
2023/02/19 10:07:19;;;;;;;0.00;0.00;;;5.70;78.40;;;;;;4967185;28;20539;-82
2023/02/19 10:09:54;;;;;;;;;;;5.90;78.00;;;;;;4969710;28;20407;-83
2023/02/19 10:12:26;;;;;;;0.00;0.00;;;5.90;78.40;;;;;;4967460;28;20044;-82
2023/02/19 10:15:08;;;;;;;0.00;0.00;;;6.00;77.30;;;;;;4969999;28;20050;-82
2023/02/19 10:17:36;;;;;;;0.00;0.00;;;5.90;75.70;;;;;;4965732;28;20480;-82
2023/02/19 10:20:03;;;;;;;0.00;0.00;;;5.80;77.50;;;;;;4969842;28;20058;-83
2023/02/19 10:22:32;;;;;;;0.00;0.00;;;6.00;75.40;;;;;;4968706;28;20055;-82
2023/02/19 10:24:59;;;;;;;0.00;0.00;;;6.10;76.30;;;;;;4967474;28;20440;-82
2023/02/19 10:27:29;;;;;;;0.00;0.00;;;6.20;77.20;;;;;;4965100;28;20484;-82
2023/02/19 10:29:58;;;;;;;0.00;0.00;;;7.00;73.80;;;;;;4968450;28;20039;-82
2023/02/19 10:32:28;;;;;;;0.00;0.00;;;7.80;71.70;;;;;;4965167;28;20059;-82
2023/02/19 10:35:10;;;;;;;0.00;0.00;;;8.60;69.20;;;;;;4963512;28;20046;-82
2023/02/19 10:37:46;;;;;;;0.00;0.00;;;9.20;66.60;;;;;;4957698;28;20402;-82
2023/02/19 10:40:25;;;;;;;0.00;0.00;;;9.10;66.00;;;;;;4969702;28;20057;-82
2023/02/19 10:42:58;;;;;;;0.00;0.00;;;9.00;64.50;;;;;;4955524;28;20065;-84
2023/02/19 10:45:29;;;;;;;0.00;0.00;;;8.40;66.70;;;;;;4967637;28;20055;-86
2023/02/19 10:47:56;;;;;;;0.00;0.00;;;8.80;66.10;;;;;;4945191;28;20077;-78
2023/02/19 10:50:30;;;;;;;0.00;0.00;;;9.30;65.80;;;;;;4954080;28;20790;-76
2023/02/19 10:52:59;;;;;;;0.00;0.00;;;10.40;61.20;;;;;;4954945;28;20058;-78
2023/02/19 10:55:34;;;;;;;8.00;2.17;;;10.40;61.80;;;;;;4953757;28;20055;-78
2023/02/19 10:58:27;;;;;;;0.00;0.00;;;9.70;61.60;;;;;;4955650;28;20057;-79
2023/02/19 11:01:22;;;;;;;11.80;1.17;;;9.30;60.40;;;;;;4948003;28;20062;-80
2023/02/19 11:03:51;;;;;;;6.53;1.02;;;8.90;62.80;;;;;;4952737;28;20170;-79
2023/02/19 11:06:24;;;;;;;13.43;1.45;;;8.90;65.30;;;;;;4944262;28;20070;-80
2023/02/19 11:08:59;;;;;;;10.52;1.35;;;10.10;61.70;;;;;;4952831;28;20077;-79
2023/02/19 11:11:29;;;;;;;7.68;0.98;;;9.80;58.50;;;;;;4950765;28;20050;-77
2023/02/19 11:13:57;;;;;;;4.40;1.00;;;9.30;62.70;;;;;;4954534;28;20047;-80
2023/02/19 11:16:37;;;;;;;11.30;1.30;;;8.90;64.20;;;;;;4952990;28;20066;-79
2023/02/19 11:19:05;;;;;;;7.30;1.27;;;9.00;64.20;;;;;;4954873;28;20073;-76
2023/02/19 11:21:32;;;;;;;8.07;1.27;;;9.20;62.90;;;;;;4954117;28;20059;-77
2023/02/19 11:24:02;;;;;;;5.50;0.90;;;9.50;64.00;;;;;;4955111;28;20499;-77
2023/02/19 11:26:37;;;;;;;5.32;0.90;;;9.10;64.00;;;;;;4951388;28;20054;-77
2023/02/19 11:29:21;;;;;;;3.53;0.77;;;8.90;61.30;;;;;;4953651;28;20456;-79
2023/02/19 11:31:48;;;;;;;6.03;1.00;;;8.70;58.90;;;;;;4950287;28;20310;-74
2023/02/19 11:34:20;;;;;;;11.18;0.80;;;9.00;62.90;;;;;;4950141;28;20156;-74
2023/02/19 11:37:10;;;;;;;7.32;0.80;;;8.70;64.30;;;;;;4950908;28;20051;-75
2023/02/19 11:39:43;;;;;;;3.45;0.70;;;8.90;64.60;;;;;;4952582;28;20050;-77
2023/02/19 11:42:31;;;;;;;8.18;0.88;;;9.20;63.50;;;;;;4975544;28;20271;-80
2023/02/19 11:45:37;;;;;;;7.18;0.70;;;9.20;58.50;;;;;;4958173;28;20058;-82
2023/02/19 11:48:09;;;;;;;8.30;1.23;;;8.20;60.60;;;;;;4954768;28;20053;-79
2023/02/19 11:51:01;;;;;;;6.10;0.65;;;8.10;63.70;;;;;;4962245;28;20054;-79
2023/02/19 11:53:33;;;;;;;2.90;0.60;;;8.30;63.70;;;;;;4965086;28;20059;-79
2023/02/19 11:56:22;;;;;;;3.13;0.90;;;8.60;61.80;;;;;;4968071;28;20065;-81
2023/02/19 11:59:16;;;;;;;2.85;0.70;;;8.40;60.90;;;;;;4968541;28;20059;-81
2023/02/19 12:02:25;;;;;;;7.40;1.15;;;8.70;57.60;;;;;;4968373;28;20464;-82
2023/02/19 12:04:58;;;;;;;6.93;0.63;;;8.60;61.30;;;;;;4960386;28;20051;-82
2023/02/19 12:07:56;;;;;;;6.30;0.70;;;9.00;58.20;;;;;;4966921;28;20643;-80
2023/02/19 12:10:41;;;;;;;3.10;0.80;;;9.20;59.50;;;;;;4981878;28;20085;-80
2023/02/19 12:13:45;;;;;;;5.68;1.35;;;9.70;57.30;;;;;;4960860;28;20400;-83
2023/02/19 12:16:22;;;;;;;9.98;1.13;;;9.40;57.40;;;;;;4969120;28;20046;-84
2023/02/19 12:19:08;;;;;;;7.18;0.80;;;9.90;58.10;;;;;;4964551;28;20054;-82
2023/02/19 12:21:41;;;;;;;4.95;0.65;;;9.50;55.10;;;;;;4966778;28;20051;-80
2023/02/19 12:24:22;;;;;;;10.40;0.85;;;9.40;56.20;;;;;;4969107;28;20617;-81
2023/02/19 12:27:24;;;;;;;3.85;0.68;;;9.70;56.80;;;;;;4959520;28;20062;-80
2023/02/19 12:30:21;;;;;;;3.45;0.57;;;9.20;54.40;;;;;;4964696;28;20541;-80
2023/02/19 12:33:29;;;;;;;3.67;1.05;;;8.40;56.60;;;;;;4964902;28;20051;-78
2023/02/19 12:36:17;;;;;;;9.18;1.05;;;8.10;58.50;;;;;;4965896;28;20085;-81
2023/02/19 12:38:48;;;;;;;3.20;0.38;;;8.10;58.80;;;;;;4958651;28;20754;-77
2023/02/19 12:41:46;;;;;;;4.43;0.75;;;8.20;55.90;;;;;;4953670;28;20069;-76
2023/02/19 12:44:23;;;;;;;4.43;0.55;;;8.00;55.40;;;;;;4955880;28;20063;-77
2023/02/19 12:47:00;;;;;;;2.83;0.50;;;8.30;57.10;;;;;;4958790;28;20142;-78
2023/02/19 12:49:29;;;;;;;4.95;0.88;;;9.10;57.40;;;;;;4955953;28;20138;-77
2023/02/19 12:52:02;;;;;;;2.55;0.57;;;9.70;54.70;;;;;;4953790;28;20053;-78
2023/02/19 12:54:43;;;;;;;1.63;0.50;;;9.90;55.20;;;;;;4961044;28;20046;-78
2023/02/19 12:57:17;;;;;;;5.57;0.52;;;10.00;53.90;;;;;;4952974;28;20055;-76
2023/02/19 13:00:03;;;;;;;2.63;0.52;;;10.10;54.50;;;;;;4956934;28;20514;-75
2023/02/19 13:02:34;;;;;;;9.40;1.17;;;10.70;53.00;;;;;;4955399;28;20058;-78
2023/02/19 13:05:04;;;;;;;2.75;0.50;;;11.10;53.10;;;;;;4954453;28;20062;-76
2023/02/19 13:07:46;;;;;;;4.75;0.75;;;11.10;52.90;;;;;;4953247;28;20046;-76
2023/02/19 13:10:35;;;;;;;3.72;0.60;;;11.90;51.90;;;;;;4955592;28;20097;-79
2023/02/19 13:13:11;;;;;;;4.45;0.70;;;12.00;50.00;;;;;;4958004;28;20474;-79
2023/02/19 13:15:41;;;;;;;2.47;0.60;;;11.70;52.10;;;;;;4957277;28;20577;-79
2023/02/19 13:18:44;;;;;;;4.28;0.60;;;11.00;52.00;;;;;;4958726;28;20093;-78
2023/02/19 13:23:57;;;;;;;3.58;0.82;;;10.70;52.80;;;;;;4947768;28;20157;-79
2023/02/19 13:24:10;;;;;;;9.30;1.20;;;11.20;54.00;;;;;;4960895;28;20063;-79
2023/02/19 13:27:11;;;;;;;4.07;0.65;;;11.30;55.00;;;;;;4961152;28;20059;-79
2023/02/19 13:30:21;;;;;;;7.22;1.27;;;11.00;54.80;;;;;;4964761;28;20051;-80
2023/02/19 13:32:57;;;;;;;7.05;1.50;;;11.30;55.20;;;;;;4934620;28;20055;-80
2023/02/19 13:35:53;;;;;;;7.88;2.33;;;11.40;54.00;;;;;;4960649;28;20130;-79
2023/02/19 13:38:20;;;;;;;6.13;1.42;;;11.20;54.40;;;;;;4971776;28;20871;-78
2023/02/19 13:40:56;;;;;;;4.70;0.90;;;11.00;55.40;;;;;;4961363;28;20479;-78
2023/02/19 13:43:33;;;;;;;4.43;1.23;;;11.00;54.30;;;;;;4961146;28;20082;-79
2023/02/19 13:46:18;;;;;;;3.90;0.95;;;10.20;52.90;;;;;;4963546;28;20066;-80